sensor_id;sensor_type;location;lat;lon;timestamp;temperature;humidity
35531;DHT22;21637;53.352;-6.356;2022-09-03T00:01:00;17.30;99.90
35531;DHT22;21637;53.352;-6.356;2022-09-03T00:03:28;17.30;99.90
35531;DHT22;21637;53.352;-6.356;2022-09-03T00:13:50;17.20;99.90
35531;DHT22;21637;53.352;-6.356;2022-09-03T00:16:17;17.20;99.90
35531;DHT22;21637;53.352;-6.356;2022-09-03T00:18:50;17.20;99.90
35531;DHT22;21637;53.352;-6.356;2022-09-03T00:24:02;17.10;99.90
35531;DHT22;21637;53.352;-6.356;2022-09-03T00:26:29;17.10;99.90
35531;DHT22;21637;53.352;-6.356;2022-09-03T00:31:33;17.00;99.90
35531;DHT22;21637;53.352;-6.356;2022-09-03T00:34:05;17.00;99.90
35531;DHT22;21637;53.352;-6.356;2022-09-03T00:36:39;17.00;99.90
35531;DHT22;21637;53.352;-6.356;2022-09-03T00:39:12;17.00;99.90
35531;DHT22;21637;53.352;-6.356;2022-09-03T00:46:48;17.00;99.90
35531;DHT22;21637;53.352;-6.356;2022-09-03T00:49:28;16.90;99.90
35531;DHT22;21637;53.352;-6.356;2022-09-03T00:54:28;16.90;99.90
35531;DHT22;21637;53.352;-6.356;2022-09-03T00:57:19;16.90;99.90
35531;DHT22;21637;53.352;-6.356;2022-09-03T01:00:07;16.80;99.90
35531;DHT22;21637;53.352;-6.356;2022-09-03T01:02:41;16.80;99.90
35531;DHT22;21637;53.352;-6.356;2022-09-03T01:10:52;16.60;99.90
35531;DHT22;21637;53.352;-6.356;2022-09-03T01:18:43;16.40;99.90
35531;DHT22;21637;53.352;-6.356;2022-09-03T01:21:35;16.40;99.90
35531;DHT22;21637;53.352;-6.356;2022-09-03T01:29:39;16.40;99.90
35531;DHT22;21637;53.352;-6.356;2022-09-03T01:32:18;16.40;99.90
35531;DHT22;21637;53.352;-6.356;2022-09-03T01:34:48;16.40;99.90
35531;DHT22;21637;53.352;-6.356;2022-09-03T01:40:21;16.50;99.90
35531;DHT22;21637;53.352;-6.356;2022-09-03T01:45:39;16.50;99.90
35531;DHT22;21637;53.352;-6.356;2022-09-03T01:48:20;16.40;99.90
35531;DHT22;21637;53.352;-6.356;2022-09-03T01:51:01;16.40;99.90
35531;DHT22;21637;53.352;-6.356;2022-09-03T01:56:24;16.40;99.90
35531;DHT22;21637;53.352;-6.356;2022-09-03T01:58:55;16.40;99.90
35531;DHT22;21637;53.352;-6.356;2022-09-03T02:01:30;16.40;99.90
35531;DHT22;21637;53.352;-6.356;2022-09-03T02:03:57;16.30;99.90
35531;DHT22;21637;53.352;-6.356;2022-09-03T02:06:25;16.20;99.90
35531;DHT22;21637;53.352;-6.356;2022-09-03T02:08:51;16.20;99.90
35531;DHT22;21637;53.352;-6.356;2022-09-03T02:11:17;16.10;99.90
35531;DHT22;21637;53.352;-6.356;2022-09-03T02:13:52;16.10;99.90
35531;DHT22;21637;53.352;-6.356;2022-09-03T02:16:19;16.00;99.90
35531;DHT22;21637;53.352;-6.356;2022-09-03T02:18:46;16.00;99.90
35531;DHT22;21637;53.352;-6.356;2022-09-03T02:21:13;15.90;99.90
35531;DHT22;21637;53.352;-6.356;2022-09-03T02:23:40;15.90;99.90
35531;DHT22;21637;53.352;-6.356;2022-09-03T02:26:07;15.80;99.90
35531;DHT22;21637;53.352;-6.356;2022-09-03T02:28:34;15.80;99.90
35531;DHT22;21637;53.352;-6.356;2022-09-03T02:31:00;15.70;99.90
35531;DHT22;21637;53.352;-6.356;2022-09-03T02:33:26;15.70;99.90
35531;DHT22;21637;53.352;-6.356;2022-09-03T02:35:51;15.70;99.90
35531;DHT22;21637;53.352;-6.356;2022-09-03T02:38:18;15.60;99.90
35531;DHT22;21637;53.352;-6.356;2022-09-03T02:40:45;15.60;99.90
35531;DHT22;21637;53.352;-6.356;2022-09-03T02:43:12;15.60;99.90
35531;DHT22;21637;53.352;-6.356;2022-09-03T02:45:44;15.50;99.90
35531;DHT22;21637;53.352;-6.356;2022-09-03T02:48:11;15.50;99.90
35531;DHT22;21637;53.352;-6.356;2022-09-03T02:50:41;15.50;99.90
35531;DHT22;21637;53.352;-6.356;2022-09-03T02:53:07;15.50;99.90
35531;DHT22;21637;53.352;-6.356;2022-09-03T02:55:33;15.50;99.90
35531;DHT22;21637;53.352;-6.356;2022-09-03T02:57:58;15.50;99.90
35531;DHT22;21637;53.352;-6.356;2022-09-03T03:00:25;15.50;99.90
35531;DHT22;21637;53.352;-6.356;2022-09-03T03:02:50;15.50;99.90
35531;DHT22;21637;53.352;-6.356;2022-09-03T03:05:20;15.50;99.90
35531;DHT22;21637;53.352;-6.356;2022-09-03T03:07:48;15.40;99.90
35531;DHT22;21637;53.352;-6.356;2022-09-03T03:10:13;15.40;99.90
35531;DHT22;21637;53.352;-6.356;2022-09-03T03:12:39;15.30;99.90
35531;DHT22;21637;53.352;-6.356;2022-09-03T03:15:05;15.40;99.90
35531;DHT22;21637;53.352;-6.356;2022-09-03T03:17:31;15.50;99.90
35531;DHT22;21637;53.352;-6.356;2022-09-03T03:19:56;15.50;99.90
35531;DHT22;21637;53.352;-6.356;2022-09-03T03:22:22;15.50;99.90
35531;DHT22;21637;53.352;-6.356;2022-09-03T03:24:48;15.50;99.90
35531;DHT22;21637;53.352;-6.356;2022-09-03T03:27:15;15.50;99.90
35531;DHT22;21637;53.352;-6.356;2022-09-03T03:29:40;15.50;99.90
35531;DHT22;21637;53.352;-6.356;2022-09-03T03:32:06;15.50;99.90
35531;DHT22;21637;53.352;-6.356;2022-09-03T03:34:31;15.50;99.90
35531;DHT22;21637;53.352;-6.356;2022-09-03T03:36:57;15.50;99.90
35531;DHT22;21637;53.352;-6.356;2022-09-03T03:39:24;15.50;99.90
35531;DHT22;21637;53.352;-6.356;2022-09-03T03:41:49;15.50;99.90
35531;DHT22;21637;53.352;-6.356;2022-09-03T03:44:16;15.50;99.90
35531;DHT22;21637;53.352;-6.356;2022-09-03T03:46:44;15.40;99.90
35531;DHT22;21637;53.352;-6.356;2022-09-03T03:49:10;15.30;99.90
35531;DHT22;21637;53.352;-6.356;2022-09-03T03:51:36;15.30;99.90
35531;DHT22;21637;53.352;-6.356;2022-09-03T03:54:02;15.30;99.90
35531;DHT22;21637;53.352;-6.356;2022-09-03T03:56:28;15.30;99.90
35531;DHT22;21637;53.352;-6.356;2022-09-03T03:58:54;15.30;99.90
35531;DHT22;21637;53.352;-6.356;2022-09-03T04:01:20;15.30;99.90
35531;DHT22;21637;53.352;-6.356;2022-09-03T04:03:47;15.30;99.90
35531;DHT22;21637;53.352;-6.356;2022-09-03T04:06:13;15.20;99.90
35531;DHT22;21637;53.352;-6.356;2022-09-03T04:08:40;15.20;99.90
35531;DHT22;21637;53.352;-6.356;2022-09-03T04:11:07;15.20;99.90
35531;DHT22;21637;53.352;-6.356;2022-09-03T04:13:35;15.20;99.90
35531;DHT22;21637;53.352;-6.356;2022-09-03T04:16:01;15.20;99.90
35531;DHT22;21637;53.352;-6.356;2022-09-03T04:18:27;15.20;99.90
35531;DHT22;21637;53.352;-6.356;2022-09-03T04:20:57;15.20;99.90
35531;DHT22;21637;53.352;-6.356;2022-09-03T04:23:23;15.20;99.90
35531;DHT22;21637;53.352;-6.356;2022-09-03T04:25:51;15.20;99.90
35531;DHT22;21637;53.352;-6.356;2022-09-03T04:28:17;15.20;99.90
35531;DHT22;21637;53.352;-6.356;2022-09-03T04:30:43;15.20;99.90
35531;DHT22;21637;53.352;-6.356;2022-09-03T04:33:08;15.20;99.90
35531;DHT22;21637;53.352;-6.356;2022-09-03T04:35:34;15.20;99.90
35531;DHT22;21637;53.352;-6.356;2022-09-03T04:37:59;15.20;99.90
35531;DHT22;21637;53.352;-6.356;2022-09-03T04:40:25;15.20;99.90
35531;DHT22;21637;53.352;-6.356;2022-09-03T04:42:55;15.10;99.90
35531;DHT22;21637;53.352;-6.356;2022-09-03T04:45:20;15.10;99.90
35531;DHT22;21637;53.352;-6.356;2022-09-03T04:47:54;15.00;99.90
35531;DHT22;21637;53.352;-6.356;2022-09-03T04:50:20;15.00;99.90
35531;DHT22;21637;53.352;-6.356;2022-09-03T04:52:47;15.00;99.90
35531;DHT22;21637;53.352;-6.356;2022-09-03T04:55:13;14.90;99.90
35531;DHT22;21637;53.352;-6.356;2022-09-03T04:57:39;14.80;99.90
35531;DHT22;21637;53.352;-6.356;2022-09-03T05:00:07;14.80;99.90
35531;DHT22;21637;53.352;-6.356;2022-09-03T05:02:35;14.80;99.90
35531;DHT22;21637;53.352;-6.356;2022-09-03T05:05:01;14.70;99.90
35531;DHT22;21637;53.352;-6.356;2022-09-03T05:07:26;14.70;99.90
35531;DHT22;21637;53.352;-6.356;2022-09-03T05:09:53;14.60;99.90
35531;DHT22;21637;53.352;-6.356;2022-09-03T05:12:18;14.50;99.90
35531;DHT22;21637;53.352;-6.356;2022-09-03T05:14:45;14.60;99.90
35531;DHT22;21637;53.352;-6.356;2022-09-03T05:17:10;14.50;99.90
35531;DHT22;21637;53.352;-6.356;2022-09-03T05:19:36;14.50;99.90
35531;DHT22;21637;53.352;-6.356;2022-09-03T05:22:02;14.50;99.90
35531;DHT22;21637;53.352;-6.356;2022-09-03T05:24:27;14.30;99.90
35531;DHT22;21637;53.352;-6.356;2022-09-03T05:26:53;14.30;99.90
35531;DHT22;21637;53.352;-6.356;2022-09-03T05:29:19;14.20;99.90
35531;DHT22;21637;53.352;-6.356;2022-09-03T05:31:46;14.20;99.90
35531;DHT22;21637;53.352;-6.356;2022-09-03T05:34:11;14.10;99.90
35531;DHT22;21637;53.352;-6.356;2022-09-03T05:36:37;14.10;99.90
35531;DHT22;21637;53.352;-6.356;2022-09-03T05:39:03;14.20;99.90
35531;DHT22;21637;53.352;-6.356;2022-09-03T05:41:29;14.10;99.90
35531;DHT22;21637;53.352;-6.356;2022-09-03T05:43:57;14.20;99.90
35531;DHT22;21637;53.352;-6.356;2022-09-03T05:46:26;14.10;99.90
35531;DHT22;21637;53.352;-6.356;2022-09-03T05:48:58;14.10;99.90
35531;DHT22;21637;53.352;-6.356;2022-09-03T05:51:24;14.10;99.90
35531;DHT22;21637;53.352;-6.356;2022-09-03T05:53:50;14.20;99.90
35531;DHT22;21637;53.352;-6.356;2022-09-03T05:56:18;14.20;99.90
35531;DHT22;21637;53.352;-6.356;2022-09-03T05:58:45;14.10;99.90
35531;DHT22;21637;53.352;-6.356;2022-09-03T06:01:18;14.10;99.90
35531;DHT22;21637;53.352;-6.356;2022-09-03T06:03:44;14.00;99.90
35531;DHT22;21637;53.352;-6.356;2022-09-03T06:06:10;14.00;99.90
35531;DHT22;21637;53.352;-6.356;2022-09-03T06:08:38;13.90;99.90
35531;DHT22;21637;53.352;-6.356;2022-09-03T06:11:04;14.00;99.90
35531;DHT22;21637;53.352;-6.356;2022-09-03T06:13:31;14.00;99.90
35531;DHT22;21637;53.352;-6.356;2022-09-03T06:16:01;13.90;99.90
35531;DHT22;21637;53.352;-6.356;2022-09-03T06:18:28;14.00;99.90
35531;DHT22;21637;53.352;-6.356;2022-09-03T06:20:58;14.00;99.90
35531;DHT22;21637;53.352;-6.356;2022-09-03T06:23:24;13.90;99.90
35531;DHT22;21637;53.352;-6.356;2022-09-03T06:28:34;13.90;99.90
35531;DHT22;21637;53.352;-6.356;2022-09-03T06:31:05;14.00;99.90
35531;DHT22;21637;53.352;-6.356;2022-09-03T06:33:31;13.90;99.90
35531;DHT22;21637;53.352;-6.356;2022-09-03T06:35:57;13.90;99.90
35531;DHT22;21637;53.352;-6.356;2022-09-03T06:38:27;13.80;99.90
35531;DHT22;21637;53.352;-6.356;2022-09-03T06:40:57;13.80;99.90
35531;DHT22;21637;53.352;-6.356;2022-09-03T06:43:23;13.80;99.90
35531;DHT22;21637;53.352;-6.356;2022-09-03T06:45:56;13.80;99.90
35531;DHT22;21637;53.352;-6.356;2022-09-03T06:48:22;13.80;99.90
35531;DHT22;21637;53.352;-6.356;2022-09-03T06:50:54;13.80;99.90
35531;DHT22;21637;53.352;-6.356;2022-09-03T06:53:21;13.80;99.90
35531;DHT22;21637;53.352;-6.356;2022-09-03T06:55:56;13.80;99.90
35531;DHT22;21637;53.352;-6.356;2022-09-03T06:58:23;13.80;99.90
35531;DHT22;21637;53.352;-6.356;2022-09-03T07:00:49;13.70;99.90
35531;DHT22;21637;53.352;-6.356;2022-09-03T07:03:16;13.70;99.90
35531;DHT22;21637;53.352;-6.356;2022-09-03T07:05:43;13.70;99.90
35531;DHT22;21637;53.352;-6.356;2022-09-03T07:08:09;13.70;99.90
35531;DHT22;21637;53.352;-6.356;2022-09-03T07:10:35;13.80;99.90
35531;DHT22;21637;53.352;-6.356;2022-09-03T07:13:02;13.80;99.90
35531;DHT22;21637;53.352;-6.356;2022-09-03T07:15:27;13.70;99.90
35531;DHT22;21637;53.352;-6.356;2022-09-03T07:17:53;13.70;99.90
35531;DHT22;21637;53.352;-6.356;2022-09-03T07:20:18;13.70;99.90
35531;DHT22;21637;53.352;-6.356;2022-09-03T07:22:44;13.80;99.90
35531;DHT22;21637;53.352;-6.356;2022-09-03T07:25:10;13.80;99.90
35531;DHT22;21637;53.352;-6.356;2022-09-03T07:27:36;13.90;99.90
35531;DHT22;21637;53.352;-6.356;2022-09-03T07:30:01;13.70;99.90
35531;DHT22;21637;53.352;-6.356;2022-09-03T07:32:28;13.80;99.90
35531;DHT22;21637;53.352;-6.356;2022-09-03T07:34:53;13.80;99.90
35531;DHT22;21637;53.352;-6.356;2022-09-03T07:37:19;13.90;99.90
35531;DHT22;21637;53.352;-6.356;2022-09-03T07:39:44;13.90;99.90
35531;DHT22;21637;53.352;-6.356;2022-09-03T07:42:11;13.90;99.90
35531;DHT22;21637;53.352;-6.356;2022-09-03T07:44:36;13.90;99.90
35531;DHT22;21637;53.352;-6.356;2022-09-03T07:47:02;14.00;99.90
35531;DHT22;21637;53.352;-6.356;2022-09-03T07:49:27;14.00;99.90
35531;DHT22;21637;53.352;-6.356;2022-09-03T07:51:53;14.00;99.90
35531;DHT22;21637;53.352;-6.356;2022-09-03T07:54:19;14.10;99.90
35531;DHT22;21637;53.352;-6.356;2022-09-03T07:56:46;14.10;99.90
35531;DHT22;21637;53.352;-6.356;2022-09-03T07:59:11;14.10;99.90
35531;DHT22;21637;53.352;-6.356;2022-09-03T08:01:37;14.10;99.90
35531;DHT22;21637;53.352;-6.356;2022-09-03T08:04:03;14.10;99.90
35531;DHT22;21637;53.352;-6.356;2022-09-03T08:06:31;14.10;99.90
35531;DHT22;21637;53.352;-6.356;2022-09-03T08:08:58;14.00;99.90
35531;DHT22;21637;53.352;-6.356;2022-09-03T08:11:25;13.90;99.90
35531;DHT22;21637;53.352;-6.356;2022-09-03T08:13:56;14.00;99.90
35531;DHT22;21637;53.352;-6.356;2022-09-03T08:16:25;14.00;99.90
35531;DHT22;21637;53.352;-6.356;2022-09-03T08:18:51;14.00;99.90
35531;DHT22;21637;53.352;-6.356;2022-09-03T08:21:18;14.00;99.90
35531;DHT22;21637;53.352;-6.356;2022-09-03T08:23:45;14.00;99.90
35531;DHT22;21637;53.352;-6.356;2022-09-03T08:26:11;14.00;99.90
35531;DHT22;21637;53.352;-6.356;2022-09-03T08:28:37;14.00;99.90
35531;DHT22;21637;53.352;-6.356;2022-09-03T08:33:31;14.00;99.90
35531;DHT22;21637;53.352;-6.356;2022-09-03T08:38:30;14.20;99.90
35531;DHT22;21637;53.352;-6.356;2022-09-03T08:41:01;14.20;99.90
35531;DHT22;21637;53.352;-6.356;2022-09-03T08:43:27;14.20;99.90
35531;DHT22;21637;53.352;-6.356;2022-09-03T08:45:53;14.30;99.90
35531;DHT22;21637;53.352;-6.356;2022-09-03T08:48:19;14.20;99.90
35531;DHT22;21637;53.352;-6.356;2022-09-03T08:50:47;14.30;99.90
35531;DHT22;21637;53.352;-6.356;2022-09-03T08:56:02;14.40;99.90
35531;DHT22;21637;53.352;-6.356;2022-09-03T08:58:29;14.40;99.90
35531;DHT22;21637;53.352;-6.356;2022-09-03T09:08:50;14.30;99.90
35531;DHT22;21637;53.352;-6.356;2022-09-03T09:11:40;14.30;99.90
35531;DHT22;21637;53.352;-6.356;2022-09-03T09:21:44;14.40;99.90
35531;DHT22;21637;53.352;-6.356;2022-09-03T09:24:21;14.30;99.90
35531;DHT22;21637;53.352;-6.356;2022-09-03T09:26:47;14.40;99.90
35531;DHT22;21637;53.352;-6.356;2022-09-03T09:29:13;14.40;99.90
35531;DHT22;21637;53.352;-6.356;2022-09-03T09:31:39;14.40;99.90
35531;DHT22;21637;53.352;-6.356;2022-09-03T09:34:08;14.50;99.90
35531;DHT22;21637;53.352;-6.356;2022-09-03T09:36:37;14.50;99.90
35531;DHT22;21637;53.352;-6.356;2022-09-03T09:39:10;14.40;99.90
35531;DHT22;21637;53.352;-6.356;2022-09-03T09:41:35;14.50;99.90
35531;DHT22;21637;53.352;-6.356;2022-09-03T09:44:02;14.60;99.90
35531;DHT22;21637;53.352;-6.356;2022-09-03T09:46:34;14.70;99.90
35531;DHT22;21637;53.352;-6.356;2022-09-03T09:49:00;14.70;99.90
35531;DHT22;21637;53.352;-6.356;2022-09-03T09:51:26;14.60;99.90
35531;DHT22;21637;53.352;-6.356;2022-09-03T09:56:26;14.40;99.90
35531;DHT22;21637;53.352;-6.356;2022-09-03T09:59:05;14.50;99.90
35531;DHT22;21637;53.352;-6.356;2022-09-03T10:01:32;14.60;99.90
35531;DHT22;21637;53.352;-6.356;2022-09-03T10:03:58;14.50;99.90
35531;DHT22;21637;53.352;-6.356;2022-09-03T10:06:25;14.50;99.90
35531;DHT22;21637;53.352;-6.356;2022-09-03T10:09:11;14.40;99.90
35531;DHT22;21637;53.352;-6.356;2022-09-03T10:11:37;14.50;99.90
35531;DHT22;21637;53.352;-6.356;2022-09-03T10:14:39;14.40;99.90
35531;DHT22;21637;53.352;-6.356;2022-09-03T10:17:04;14.50;99.90
35531;DHT22;21637;53.352;-6.356;2022-09-03T10:19:39;14.40;99.90
35531;DHT22;21637;53.352;-6.356;2022-09-03T10:22:09;14.40;99.90
35531;DHT22;21637;53.352;-6.356;2022-09-03T10:27:07;14.40;99.90
35531;DHT22;21637;53.352;-6.356;2022-09-03T10:29:35;14.50;99.90
35531;DHT22;21637;53.352;-6.356;2022-09-03T10:32:28;14.50;99.90
35531;DHT22;21637;53.352;-6.356;2022-09-03T10:48:31;14.70;99.90
35531;DHT22;21637;53.352;-6.356;2022-09-03T10:50:28;14.60;99.90
35531;DHT22;21637;53.352;-6.356;2022-09-03T10:53:38;14.50;99.90
35531;DHT22;21637;53.352;-6.356;2022-09-03T11:01:00;14.50;99.90
35531;DHT22;21637;53.352;-6.356;2022-09-03T11:03:38;14.50;99.90
35531;DHT22;21637;53.352;-6.356;2022-09-03T11:06:09;14.40;99.90
35531;DHT22;21637;53.352;-6.356;2022-09-03T11:08:44;14.40;99.90
35531;DHT22;21637;53.352;-6.356;2022-09-03T11:11:25;14.50;99.90
35531;DHT22;21637;53.352;-6.356;2022-09-03T11:13:56;14.40;99.90
35531;DHT22;21637;53.352;-6.356;2022-09-03T11:16:24;14.40;99.90
35531;DHT22;21637;53.352;-6.356;2022-09-03T11:18:56;14.50;99.90
35531;DHT22;21637;53.352;-6.356;2022-09-03T11:21:23;14.40;99.90
35531;DHT22;21637;53.352;-6.356;2022-09-03T11:23:51;14.40;99.90
35531;DHT22;21637;53.352;-6.356;2022-09-03T11:26:18;14.50;99.90
35531;DHT22;21637;53.352;-6.356;2022-09-03T11:33:47;14.40;99.90
35531;DHT22;21637;53.352;-6.356;2022-09-03T11:36:25;14.40;99.90
35531;DHT22;21637;53.352;-6.356;2022-09-03T11:38:53;14.30;99.90
35531;DHT22;21637;53.352;-6.356;2022-09-03T11:43:47;14.30;99.90
35531;DHT22;21637;53.352;-6.356;2022-09-03T11:48:42;14.30;99.90
35531;DHT22;21637;53.352;-6.356;2022-09-03T11:51:16;14.30;99.90
35531;DHT22;21637;53.352;-6.356;2022-09-03T11:53:51;14.20;99.90
35531;DHT22;21637;53.352;-6.356;2022-09-03T11:56:17;14.30;99.90
35531;DHT22;21637;53.352;-6.356;2022-09-03T11:58:43;14.30;99.90
35531;DHT22;21637;53.352;-6.356;2022-09-03T12:01:10;14.30;99.90
35531;DHT22;21637;53.352;-6.356;2022-09-03T12:03:52;14.40;99.90
35531;DHT22;21637;53.352;-6.356;2022-09-03T12:11:33;14.30;99.90
35531;DHT22;21637;53.352;-6.356;2022-09-03T12:19:24;14.40;99.90
35531;DHT22;21637;53.352;-6.356;2022-09-03T12:21:52;14.40;99.90
35531;DHT22;21637;53.352;-6.356;2022-09-03T12:24:19;14.50;99.90
35531;DHT22;21637;53.352;-6.356;2022-09-03T12:26:47;14.50;99.90
35531;DHT22;21637;53.352;-6.356;2022-09-03T12:29:21;14.50;99.90
35531;DHT22;21637;53.352;-6.356;2022-09-03T12:31:47;14.40;99.90
35531;DHT22;21637;53.352;-6.356;2022-09-03T12:34:15;14.50;99.90
35531;DHT22;21637;53.352;-6.356;2022-09-03T12:36:42;14.50;99.90
35531;DHT22;21637;53.352;-6.356;2022-09-03T12:42:03;14.50;99.90
35531;DHT22;21637;53.352;-6.356;2022-09-03T12:44:30;14.60;99.90
35531;DHT22;21637;53.352;-6.356;2022-09-03T12:47:04;14.50;99.90
35531;DHT22;21637;53.352;-6.356;2022-09-03T12:49:34;14.50;99.90
35531;DHT22;21637;53.352;-6.356;2022-09-03T12:52:02;14.50;99.90
35531;DHT22;21637;53.352;-6.356;2022-09-03T12:54:28;14.60;99.90
35531;DHT22;21637;53.352;-6.356;2022-09-03T12:56:57;14.60;99.90
35531;DHT22;21637;53.352;-6.356;2022-09-03T12:59:24;14.50;99.90
35531;DHT22;21637;53.352;-6.356;2022-09-03T13:01:52;14.50;99.90
35531;DHT22;21637;53.352;-6.356;2022-09-03T13:04:20;14.60;99.90
35531;DHT22;21637;53.352;-6.356;2022-09-03T13:06:53;14.60;99.90
35531;DHT22;21637;53.352;-6.356;2022-09-03T13:09:24;14.60;99.90
35531;DHT22;21637;53.352;-6.356;2022-09-03T13:11:51;14.60;99.90
35531;DHT22;21637;53.352;-6.356;2022-09-03T13:14:19;14.70;99.90
35531;DHT22;21637;53.352;-6.356;2022-09-03T13:22:01;14.80;99.90
35531;DHT22;21637;53.352;-6.356;2022-09-03T13:27:17;14.90;99.90
35531;DHT22;21637;53.352;-6.356;2022-09-03T13:40:46;15.10;99.90
35531;DHT22;21637;53.352;-6.356;2022-09-03T13:43:23;15.20;99.90
35531;DHT22;21637;53.352;-6.356;2022-09-03T13:45:51;15.20;99.90
35531;DHT22;21637;53.352;-6.356;2022-09-03T13:48:21;15.30;99.90
35531;DHT22;21637;53.352;-6.356;2022-09-03T13:51:13;15.40;99.90
35531;DHT22;21637;53.352;-6.356;2022-09-03T13:53:45;15.40;99.90
35531;DHT22;21637;53.352;-6.356;2022-09-03T13:56:18;15.50;99.90
35531;DHT22;21637;53.352;-6.356;2022-09-03T13:58:46;15.50;99.90
35531;DHT22;21637;53.352;-6.356;2022-09-03T14:01:18;15.60;99.90
35531;DHT22;21637;53.352;-6.356;2022-09-03T14:03:48;15.50;99.90
35531;DHT22;21637;53.352;-6.356;2022-09-03T14:19:08;15.60;99.90
35531;DHT22;21637;53.352;-6.356;2022-09-03T14:21:53;15.60;99.90
35531;DHT22;21637;53.352;-6.356;2022-09-03T14:24:25;15.60;99.90
35531;DHT22;21637;53.352;-6.356;2022-09-03T14:26:55;15.70;99.90
35531;DHT22;21637;53.352;-6.356;2022-09-03T14:29:28;15.70;99.90
35531;DHT22;21637;53.352;-6.356;2022-09-03T14:34:49;15.70;99.90
35531;DHT22;21637;53.352;-6.356;2022-09-03T14:39:55;15.70;99.90
35531;DHT22;21637;53.352;-6.356;2022-09-03T14:42:30;15.70;99.90
35531;DHT22;21637;53.352;-6.356;2022-09-03T14:45:14;15.70;99.90
35531;DHT22;21637;53.352;-6.356;2022-09-03T15:03:02;15.70;99.90
35531;DHT22;21637;53.352;-6.356;2022-09-03T15:08:07;15.70;99.90
35531;DHT22;21637;53.352;-6.356;2022-09-03T15:13:19;15.70;99.90
35531;DHT22;21637;53.352;-6.356;2022-09-03T15:18:28;15.80;99.90
35531;DHT22;21637;53.352;-6.356;2022-09-03T15:36:45;15.80;99.90
35531;DHT22;21637;53.352;-6.356;2022-09-03T15:39:24;15.70;99.90
35531;DHT22;21637;53.352;-6.356;2022-09-03T15:41:53;15.70;99.90
35531;DHT22;21637;53.352;-6.356;2022-09-03T15:44:21;15.70;99.90
35531;DHT22;21637;53.352;-6.356;2022-09-03T15:49:59;15.60;99.90
35531;DHT22;21637;53.352;-6.356;2022-09-03T15:56:01;15.50;99.90
35531;DHT22;21637;53.352;-6.356;2022-09-03T16:00:40;15.50;99.90
35531;DHT22;21637;53.352;-6.356;2022-09-03T16:03:14;15.50;99.90
35531;DHT22;21637;53.352;-6.356;2022-09-03T16:05:48;15.40;99.90
35531;DHT22;21637;53.352;-6.356;2022-09-03T16:08:28;15.50;99.90
35531;DHT22;21637;53.352;-6.356;2022-09-03T16:10:59;15.50;99.90
35531;DHT22;21637;53.352;-6.356;2022-09-03T16:13:30;15.40;99.90
35531;DHT22;21637;53.352;-6.356;2022-09-03T16:18:39;15.50;99.90
35531;DHT22;21637;53.352;-6.356;2022-09-03T16:21:14;15.50;99.90
35531;DHT22;21637;53.352;-6.356;2022-09-03T16:26:17;15.50;99.90
35531;DHT22;21637;53.352;-6.356;2022-09-03T16:28:54;15.50;99.90
35531;DHT22;21637;53.352;-6.356;2022-09-03T16:31:32;15.50;99.90
35531;DHT22;21637;53.352;-6.356;2022-09-03T16:34:02;15.60;99.90
35531;DHT22;21637;53.352;-6.356;2022-09-03T16:36:43;15.60;99.90
35531;DHT22;21637;53.352;-6.356;2022-09-03T16:42:00;15.60;99.90
35531;DHT22;21637;53.352;-6.356;2022-09-03T16:47:08;15.60;99.90
35531;DHT22;21637;53.352;-6.356;2022-09-03T16:59:51;15.60;99.90
35531;DHT22;21637;53.352;-6.356;2022-09-03T17:02:25;15.60;99.90
35531;DHT22;21637;53.352;-6.356;2022-09-03T17:04:57;15.70;99.90
35531;DHT22;21637;53.352;-6.356;2022-09-03T17:12:37;15.60;99.90
35531;DHT22;21637;53.352;-6.356;2022-09-03T17:30:54;15.60;99.90
35531;DHT22;21637;53.352;-6.356;2022-09-03T17:33:25;15.60;99.90
35531;DHT22;21637;53.352;-6.356;2022-09-03T17:36:15;15.70;99.90
35531;DHT22;21637;53.352;-6.356;2022-09-03T17:38:58;15.70;99.90
35531;DHT22;21637;53.352;-6.356;2022-09-03T17:41:29;15.70;99.90
35531;DHT22;21637;53.352;-6.356;2022-09-03T17:47:06;15.80;99.90
35531;DHT22;21637;53.352;-6.356;2022-09-03T17:49:41;15.80;99.90
35531;DHT22;21637;53.352;-6.356;2022-09-03T17:54:46;15.90;99.90
35531;DHT22;21637;53.352;-6.356;2022-09-03T17:57:18;15.90;99.90
35531;DHT22;21637;53.352;-6.356;2022-09-03T17:59:52;16.00;99.90
35531;DHT22;21637;53.352;-6.356;2022-09-03T18:02:26;16.00;99.90
35531;DHT22;21637;53.352;-6.356;2022-09-03T18:05:40;16.00;99.90
35531;DHT22;21637;53.352;-6.356;2022-09-03T18:10:28;16.00;99.90
35531;DHT22;21637;53.352;-6.356;2022-09-03T18:15:35;15.90;99.90
35531;DHT22;21637;53.352;-6.356;2022-09-03T18:18:11;15.90;99.90
35531;DHT22;21637;53.352;-6.356;2022-09-03T18:20:47;15.90;99.90
35531;DHT22;21637;53.352;-6.356;2022-09-03T18:23:44;15.90;99.90
35531;DHT22;21637;53.352;-6.356;2022-09-03T18:26:30;15.80;99.90
35531;DHT22;21637;53.352;-6.356;2022-09-03T18:32:24;15.70;99.90
35531;DHT22;21637;53.352;-6.356;2022-09-03T18:35:08;15.60;99.90
35531;DHT22;21637;53.352;-6.356;2022-09-03T18:37:53;15.60;99.90
35531;DHT22;21637;53.352;-6.356;2022-09-03T18:41:03;15.60;99.90
35531;DHT22;21637;53.352;-6.356;2022-09-03T18:49:28;15.50;99.90
35531;DHT22;21637;53.352;-6.356;2022-09-03T18:52:26;15.50;99.90
35531;DHT22;21637;53.352;-6.356;2022-09-03T18:55:20;15.40;99.90
35531;DHT22;21637;53.352;-6.356;2022-09-03T19:01:07;15.40;99.90
35531;DHT22;21637;53.352;-6.356;2022-09-03T19:06:49;15.30;99.90
35531;DHT22;21637;53.352;-6.356;2022-09-03T19:15:13;15.20;99.90
35531;DHT22;21637;53.352;-6.356;2022-09-03T19:18:06;15.20;99.90
35531;DHT22;21637;53.352;-6.356;2022-09-03T19:23:56;15.10;99.90
35531;DHT22;21637;53.352;-6.356;2022-09-03T19:29:36;15.10;99.90
35531;DHT22;21637;53.352;-6.356;2022-09-03T19:32:28;15.00;99.90
35531;DHT22;21637;53.352;-6.356;2022-09-03T19:35:17;15.00;99.90
35531;DHT22;21637;53.352;-6.356;2022-09-03T19:38:14;15.00;99.90
35531;DHT22;21637;53.352;-6.356;2022-09-03T19:41:05;14.90;99.90
35531;DHT22;21637;53.352;-6.356;2022-09-03T19:44:07;14.80;99.90
35531;DHT22;21637;53.352;-6.356;2022-09-03T19:46:59;14.80;99.90
35531;DHT22;21637;53.352;-6.356;2022-09-03T19:55:25;14.80;99.90
35531;DHT22;21637;53.352;-6.356;2022-09-03T19:58:10;14.70;99.90
35531;DHT22;21637;53.352;-6.356;2022-09-03T20:00:55;14.70;99.90
35531;DHT22;21637;53.352;-6.356;2022-09-03T20:03:40;14.60;99.90
35531;DHT22;21637;53.352;-6.356;2022-09-03T20:06:24;14.60;99.90
35531;DHT22;21637;53.352;-6.356;2022-09-03T20:09:09;14.60;99.90
35531;DHT22;21637;53.352;-6.356;2022-09-03T20:11:55;14.60;99.90
35531;DHT22;21637;53.352;-6.356;2022-09-03T20:14:22;14.50;99.90
35531;DHT22;21637;53.352;-6.356;2022-09-03T20:27:24;14.40;99.90
35531;DHT22;21637;53.352;-6.356;2022-09-03T20:30:03;14.40;99.90
35531;DHT22;21637;53.352;-6.356;2022-09-03T20:32:42;14.30;99.90
35531;DHT22;21637;53.352;-6.356;2022-09-03T20:37:43;14.30;99.90
35531;DHT22;21637;53.352;-6.356;2022-09-03T20:40:32;14.20;99.90